sensor_id;sensor_type;location;lat;lon;timestamp;temperature;humidity
3705;DHT22;1868;48.918;9.438;2023-03-03T00:01:37;2.50;97.40
3705;DHT22;1868;48.918;9.438;2023-03-03T00:04:05;2.50;97.40
3705;DHT22;1868;48.918;9.438;2023-03-03T00:06:33;2.50;97.40
3705;DHT22;1868;48.918;9.438;2023-03-03T00:09:01;2.50;97.40
3705;DHT22;1868;48.918;9.438;2023-03-03T00:11:31;2.50;97.40
3705;DHT22;1868;48.918;9.438;2023-03-03T00:13:59;2.50;97.40
3705;DHT22;1868;48.918;9.438;2023-03-03T00:16:30;2.40;97.40
3705;DHT22;1868;48.918;9.438;2023-03-03T00:18:59;2.40;97.40
3705;DHT22;1868;48.918;9.438;2023-03-03T00:21:29;2.40;97.40
3705;DHT22;1868;48.918;9.438;2023-03-03T00:24:17;2.40;97.40
3705;DHT22;1868;48.918;9.438;2023-03-03T00:26:49;2.40;97.40
3705;DHT22;1868;48.918;9.438;2023-03-03T00:29:29;2.30;97.40
3705;DHT22;1868;48.918;9.438;2023-03-03T00:32:23;2.30;97.40
3705;DHT22;1868;48.918;9.438;2023-03-03T00:34:54;2.30;97.40
3705;DHT22;1868;48.918;9.438;2023-03-03T00:37:29;2.20;97.40
3705;DHT22;1868;48.918;9.438;2023-03-03T00:40:21;2.20;97.40
3705;DHT22;1868;48.918;9.438;2023-03-03T00:42:54;2.10;97.40
3705;DHT22;1868;48.918;9.438;2023-03-03T00:45:29;2.10;97.40
3705;DHT22;1868;48.918;9.438;2023-03-03T00:48:07;2.10;97.40
3705;DHT22;1868;48.918;9.438;2023-03-03T00:50:43;2.00;97.40
3705;DHT22;1868;48.918;9.438;2023-03-03T00:53:14;2.00;97.40
3705;DHT22;1868;48.918;9.438;2023-03-03T00:55:44;1.90;97.40
3705;DHT22;1868;48.918;9.438;2023-03-03T00:58:15;1.90;97.40
3705;DHT22;1868;48.918;9.438;2023-03-03T01:00:46;1.80;97.40
3705;DHT22;1868;48.918;9.438;2023-03-03T01:03:19;1.70;97.40
3705;DHT22;1868;48.918;9.438;2023-03-03T01:05:49;1.70;97.40
3705;DHT22;1868;48.918;9.438;2023-03-03T01:08:19;1.60;97.40
3705;DHT22;1868;48.918;9.438;2023-03-03T01:10:49;1.50;97.40
3705;DHT22;1868;48.918;9.438;2023-03-03T01:13:22;1.50;97.40
3705;DHT22;1868;48.918;9.438;2023-03-03T01:15:53;1.40;97.40
3705;DHT22;1868;48.918;9.438;2023-03-03T01:18:21;1.40;97.40
3705;DHT22;1868;48.918;9.438;2023-03-03T01:20:50;1.30;97.40
3705;DHT22;1868;48.918;9.438;2023-03-03T01:23:18;1.30;97.40
3705;DHT22;1868;48.918;9.438;2023-03-03T01:25:47;1.20;97.40
3705;DHT22;1868;48.918;9.438;2023-03-03T01:28:15;1.20;97.40
3705;DHT22;1868;48.918;9.438;2023-03-03T01:30:45;1.20;97.40
3705;DHT22;1868;48.918;9.438;2023-03-03T01:33:13;1.10;97.40
3705;DHT22;1868;48.918;9.438;2023-03-03T01:35:44;1.10;97.40
3705;DHT22;1868;48.918;9.438;2023-03-03T01:38:13;1.10;97.40
3705;DHT22;1868;48.918;9.438;2023-03-03T01:40:42;1.00;97.40
3705;DHT22;1868;48.918;9.438;2023-03-03T01:43:14;1.00;97.40
3705;DHT22;1868;48.918;9.438;2023-03-03T01:46:24;1.00;97.40
3705;DHT22;1868;48.918;9.438;2023-03-03T01:48:58;0.90;97.40
3705;DHT22;1868;48.918;9.438;2023-03-03T01:51:31;0.90;97.40
3705;DHT22;1868;48.918;9.438;2023-03-03T01:54:03;0.80;97.40
3705;DHT22;1868;48.918;9.438;2023-03-03T01:56:33;0.80;97.40
3705;DHT22;1868;48.918;9.438;2023-03-03T01:59:04;0.70;97.40
3705;DHT22;1868;48.918;9.438;2023-03-03T02:01:36;0.70;97.40
3705;DHT22;1868;48.918;9.438;2023-03-03T02:04:04;0.70;97.40
3705;DHT22;1868;48.918;9.438;2023-03-03T02:06:35;0.70;97.40
3705;DHT22;1868;48.918;9.438;2023-03-03T02:09:08;0.70;97.40
3705;DHT22;1868;48.918;9.438;2023-03-03T02:11:41;0.60;97.40
3705;DHT22;1868;48.918;9.438;2023-03-03T02:14:10;0.60;97.40
3705;DHT22;1868;48.918;9.438;2023-03-03T02:16:43;0.60;97.40
3705;DHT22;1868;48.918;9.438;2023-03-03T02:19:18;0.60;97.40
3705;DHT22;1868;48.918;9.438;2023-03-03T02:21:49;0.50;97.40
3705;DHT22;1868;48.918;9.438;2023-03-03T02:24:22;0.50;97.40
3705;DHT22;1868;48.918;9.438;2023-03-03T02:26:54;0.50;97.40
3705;DHT22;1868;48.918;9.438;2023-03-03T02:29:23;0.40;97.40
3705;DHT22;1868;48.918;9.438;2023-03-03T02:31:52;0.40;97.40
3705;DHT22;1868;48.918;9.438;2023-03-03T02:34:21;0.30;97.40
3705;DHT22;1868;48.918;9.438;2023-03-03T02:36:50;0.30;97.40
3705;DHT22;1868;48.918;9.438;2023-03-03T02:39:20;0.30;97.40
3705;DHT22;1868;48.918;9.438;2023-03-03T02:41:54;0.30;97.40
3705;DHT22;1868;48.918;9.438;2023-03-03T02:44:32;0.20;97.40
3705;DHT22;1868;48.918;9.438;2023-03-03T02:47:02;0.20;97.40
3705;DHT22;1868;48.918;9.438;2023-03-03T02:49:34;0.20;97.40
3705;DHT22;1868;48.918;9.438;2023-03-03T02:52:05;0.10;97.40
3705;DHT22;1868;48.918;9.438;2023-03-03T02:54:37;0.10;97.40
3705;DHT22;1868;48.918;9.438;2023-03-03T02:57:07;0.10;97.40
3705;DHT22;1868;48.918;9.438;2023-03-03T02:59:36;0.10;97.40
3705;DHT22;1868;48.918;9.438;2023-03-03T03:02:09;0.10;97.40
3705;DHT22;1868;48.918;9.438;2023-03-03T03:04:37;0.10;97.40
3705;DHT22;1868;48.918;9.438;2023-03-03T03:07:06;0.10;97.40
3705;DHT22;1868;48.918;9.438;2023-03-03T03:09:36;0.10;97.40
3705;DHT22;1868;48.918;9.438;2023-03-03T03:12:05;0.10;97.40
3705;DHT22;1868;48.918;9.438;2023-03-03T03:14:36;0.10;97.40
3705;DHT22;1868;48.918;9.438;2023-03-03T03:17:05;0.10;97.40
3705;DHT22;1868;48.918;9.438;2023-03-03T03:19:34;0.20;97.40
3705;DHT22;1868;48.918;9.438;2023-03-03T03:22:02;0.20;97.40
3705;DHT22;1868;48.918;9.438;2023-03-03T03:24:33;0.20;97.40
3705;DHT22;1868;48.918;9.438;2023-03-03T03:27:05;0.20;97.40
3705;DHT22;1868;48.918;9.438;2023-03-03T03:29:36;0.20;97.40
3705;DHT22;1868;48.918;9.438;2023-03-03T03:32:05;0.20;97.40
3705;DHT22;1868;48.918;9.438;2023-03-03T03:34:34;0.30;97.40
3705;DHT22;1868;48.918;9.438;2023-03-03T03:37:04;0.30;97.40
3705;DHT22;1868;48.918;9.438;2023-03-03T03:39:32;0.40;97.40
3705;DHT22;1868;48.918;9.438;2023-03-03T03:42:01;0.50;97.40
3705;DHT22;1868;48.918;9.438;2023-03-03T03:44:29;0.50;97.40
3705;DHT22;1868;48.918;9.438;2023-03-03T03:46:59;0.60;97.40
3705;DHT22;1868;48.918;9.438;2023-03-03T03:49:28;0.60;97.40
3705;DHT22;1868;48.918;9.438;2023-03-03T03:51:57;0.70;97.40
3705;DHT22;1868;48.918;9.438;2023-03-03T03:54:29;0.80;97.40
3705;DHT22;1868;48.918;9.438;2023-03-03T03:56:57;0.80;97.40
3705;DHT22;1868;48.918;9.438;2023-03-03T03:59:27;0.90;97.40
3705;DHT22;1868;48.918;9.438;2023-03-03T04:01:56;0.90;97.40
3705;DHT22;1868;48.918;9.438;2023-03-03T04:04:26;1.00;97.40
3705;DHT22;1868;48.918;9.438;2023-03-03T04:06:57;1.10;97.40
3705;DHT22;1868;48.918;9.438;2023-03-03T04:09:25;1.10;97.40
3705;DHT22;1868;48.918;9.438;2023-03-03T04:11:54;1.10;97.40
3705;DHT22;1868;48.918;9.438;2023-03-03T04:14:24;1.20;97.40
3705;DHT22;1868;48.918;9.438;2023-03-03T04:16:54;1.20;97.40
3705;DHT22;1868;48.918;9.438;2023-03-03T04:19:23;1.30;97.40
3705;DHT22;1868;48.918;9.438;2023-03-03T04:21:53;1.30;97.40
3705;DHT22;1868;48.918;9.438;2023-03-03T04:24:21;1.40;97.40
3705;DHT22;1868;48.918;9.438;2023-03-03T04:26:50;1.40;97.40
3705;DHT22;1868;48.918;9.438;2023-03-03T04:29:20;1.40;97.40
3705;DHT22;1868;48.918;9.438;2023-03-03T04:31:48;1.40;97.40
3705;DHT22;1868;48.918;9.438;2023-03-03T04:34:17;1.40;97.40
3705;DHT22;1868;48.918;9.438;2023-03-03T04:36:46;1.50;97.40
3705;DHT22;1868;48.918;9.438;2023-03-03T04:39:16;1.50;97.40
3705;DHT22;1868;48.918;9.438;2023-03-03T04:41:44;1.50;97.40
3705;DHT22;1868;48.918;9.438;2023-03-03T04:44:13;1.50;97.40
3705;DHT22;1868;48.918;9.438;2023-03-03T04:46:42;1.60;97.40
3705;DHT22;1868;48.918;9.438;2023-03-03T04:49:11;1.60;97.40
3705;DHT22;1868;48.918;9.438;2023-03-03T04:51:40;1.60;97.40
3705;DHT22;1868;48.918;9.438;2023-03-03T04:54:10;1.60;97.40
3705;DHT22;1868;48.918;9.438;2023-03-03T04:56:40;1.60;97.40
3705;DHT22;1868;48.918;9.438;2023-03-03T04:59:08;1.50;97.40
3705;DHT22;1868;48.918;9.438;2023-03-03T05:01:37;1.60;97.40
3705;DHT22;1868;48.918;9.438;2023-03-03T05:04:05;1.60;97.40
3705;DHT22;1868;48.918;9.438;2023-03-03T05:06:34;1.60;97.40
3705;DHT22;1868;48.918;9.438;2023-03-03T05:09:03;1.60;97.40
3705;DHT22;1868;48.918;9.438;2023-03-03T05:11:31;1.70;97.40
3705;DHT22;1868;48.918;9.438;2023-03-03T05:14:04;1.70;97.40
3705;DHT22;1868;48.918;9.438;2023-03-03T05:16:33;1.70;97.40
3705;DHT22;1868;48.918;9.438;2023-03-03T05:19:02;1.80;97.40
3705;DHT22;1868;48.918;9.438;2023-03-03T05:21:30;1.80;97.40
3705;DHT22;1868;48.918;9.438;2023-03-03T05:23:59;1.80;97.40
3705;DHT22;1868;48.918;9.438;2023-03-03T05:26:27;1.90;97.40
3705;DHT22;1868;48.918;9.438;2023-03-03T05:28:55;1.90;97.40
3705;DHT22;1868;48.918;9.438;2023-03-03T05:31:24;1.90;97.40
3705;DHT22;1868;48.918;9.438;2023-03-03T05:33:53;2.00;97.40
3705;DHT22;1868;48.918;9.438;2023-03-03T05:36:22;2.00;97.40
3705;DHT22;1868;48.918;9.438;2023-03-03T05:38:50;2.00;97.40
3705;DHT22;1868;48.918;9.438;2023-03-03T05:41:18;2.00;97.40
3705;DHT22;1868;48.918;9.438;2023-03-03T05:43:47;2.00;97.40
3705;DHT22;1868;48.918;9.438;2023-03-03T05:46:15;2.00;97.40
3705;DHT22;1868;48.918;9.438;2023-03-03T05:48:46;2.00;97.40
3705;DHT22;1868;48.918;9.438;2023-03-03T05:51:15;2.00;97.40
3705;DHT22;1868;48.918;9.438;2023-03-03T05:53:43;2.00;97.40
3705;DHT22;1868;48.918;9.438;2023-03-03T05:56:11;2.10;97.40
3705;DHT22;1868;48.918;9.438;2023-03-03T05:58:40;2.10;97.40
3705;DHT22;1868;48.918;9.438;2023-03-03T06:01:08;2.10;97.40
3705;DHT22;1868;48.918;9.438;2023-03-03T06:03:36;2.10;97.40
3705;DHT22;1868;48.918;9.438;2023-03-03T06:06:07;2.10;97.40
3705;DHT22;1868;48.918;9.438;2023-03-03T06:08:36;2.10;97.40
3705;DHT22;1868;48.918;9.438;2023-03-03T06:11:04;2.10;97.40
3705;DHT22;1868;48.918;9.438;2023-03-03T06:13:33;2.10;97.40
3705;DHT22;1868;48.918;9.438;2023-03-03T06:16:02;2.20;97.40
3705;DHT22;1868;48.918;9.438;2023-03-03T06:18:30;2.20;97.40
3705;DHT22;1868;48.918;9.438;2023-03-03T06:20:58;2.20;97.40
3705;DHT22;1868;48.918;9.438;2023-03-03T06:23:28;2.20;97.40
3705;DHT22;1868;48.918;9.438;2023-03-03T06:25:56;2.20;97.40
3705;DHT22;1868;48.918;9.438;2023-03-03T06:28:25;2.20;97.40
3705;DHT22;1868;48.918;9.438;2023-03-03T06:30:54;2.20;97.40
3705;DHT22;1868;48.918;9.438;2023-03-03T06:33:22;2.30;97.40
3705;DHT22;1868;48.918;9.438;2023-03-03T06:35:51;2.30;97.40
3705;DHT22;1868;48.918;9.438;2023-03-03T06:38:20;2.30;97.40
3705;DHT22;1868;48.918;9.438;2023-03-03T06:40:50;2.40;97.40
3705;DHT22;1868;48.918;9.438;2023-03-03T06:43:18;2.40;97.40
3705;DHT22;1868;48.918;9.438;2023-03-03T06:45:46;2.40;97.40
3705;DHT22;1868;48.918;9.438;2023-03-03T06:48:14;2.50;97.40
3705;DHT22;1868;48.918;9.438;2023-03-03T06:50:43;2.50;97.40
3705;DHT22;1868;48.918;9.438;2023-03-03T06:53:13;2.60;97.40
3705;DHT22;1868;48.918;9.438;2023-03-03T06:55:42;2.60;97.40
3705;DHT22;1868;48.918;9.438;2023-03-03T06:58:14;2.60;97.40
3705;DHT22;1868;48.918;9.438;2023-03-03T07:00:45;2.60;97.40
3705;DHT22;1868;48.918;9.438;2023-03-03T07:03:20;2.70;97.40
3705;DHT22;1868;48.918;9.438;2023-03-03T07:05:50;2.80;97.40
3705;DHT22;1868;48.918;9.438;2023-03-03T07:08:21;2.80;97.40
3705;DHT22;1868;48.918;9.438;2023-03-03T07:10:51;2.80;97.40
3705;DHT22;1868;48.918;9.438;2023-03-03T07:13:22;2.90;97.40
3705;DHT22;1868;48.918;9.438;2023-03-03T07:15:52;2.90;97.40
3705;DHT22;1868;48.918;9.438;2023-03-03T07:18:33;3.00;97.40
3705;DHT22;1868;48.918;9.438;2023-03-03T07:21:12;3.00;97.40
3705;DHT22;1868;48.918;9.438;2023-03-03T07:23:44;3.10;97.40
3705;DHT22;1868;48.918;9.438;2023-03-03T07:26:17;3.10;97.40
3705;DHT22;1868;48.918;9.438;2023-03-03T07:28:52;3.20;97.40
3705;DHT22;1868;48.918;9.438;2023-03-03T07:31:29;3.30;97.40
3705;DHT22;1868;48.918;9.438;2023-03-03T07:34:00;3.40;97.40
3705;DHT22;1868;48.918;9.438;2023-03-03T07:36:34;3.50;97.40
3705;DHT22;1868;48.918;9.438;2023-03-03T07:39:20;3.60;97.40
3705;DHT22;1868;48.918;9.438;2023-03-03T07:41:55;3.70;97.40
3705;DHT22;1868;48.918;9.438;2023-03-03T07:44:34;3.80;97.40
3705;DHT22;1868;48.918;9.438;2023-03-03T07:47:16;4.00;97.40
3705;DHT22;1868;48.918;9.438;2023-03-03T07:49:47;4.00;97.40
3705;DHT22;1868;48.918;9.438;2023-03-03T07:52:30;4.10;97.40
3705;DHT22;1868;48.918;9.438;2023-03-03T07:55:20;4.30;97.40
3705;DHT22;1868;48.918;9.438;2023-03-03T07:57:53;4.50;97.40
3705;DHT22;1868;48.918;9.438;2023-03-03T08:03:54;4.70;97.40
3705;DHT22;1868;48.918;9.438;2023-03-03T08:06:40;5.10;97.40
3705;DHT22;1868;48.918;9.438;2023-03-03T08:09:47;5.40;97.40
3705;DHT22;1868;48.918;9.438;2023-03-03T08:12:38;6.00;97.40
3705;DHT22;1868;48.918;9.438;2023-03-03T08:15:17;6.70;97.40
3705;DHT22;1868;48.918;9.438;2023-03-03T08:17:51;7.20;97.40
3705;DHT22;1868;48.918;9.438;2023-03-03T08:20:49;7.80;97.40
3705;DHT22;1868;48.918;9.438;2023-03-03T08:23:25;8.70;97.40
3705;DHT22;1868;48.918;9.438;2023-03-03T08:25:53;9.70;97.40
3705;DHT22;1868;48.918;9.438;2023-03-03T08:28:22;10.50;97.40
3705;DHT22;1868;48.918;9.438;2023-03-03T08:30:50;11.00;91.90
3705;DHT22;1868;48.918;9.438;2023-03-03T08:33:34;11.60;93.80
3705;DHT22;1868;48.918;9.438;2023-03-03T08:36:05;12.40;90.60
3705;DHT22;1868;48.918;9.438;2023-03-03T08:38:34;12.90;87.30
3705;DHT22;1868;48.918;9.438;2023-03-03T08:41:03;13.50;88.60
3705;DHT22;1868;48.918;9.438;2023-03-03T08:43:32;13.70;84.10
3705;DHT22;1868;48.918;9.438;2023-03-03T08:46:02;14.00;80.80
3705;DHT22;1868;48.918;9.438;2023-03-03T08:48:32;14.00;80.00
3705;DHT22;1868;48.918;9.438;2023-03-03T08:51:01;13.50;77.60
3705;DHT22;1868;48.918;9.438;2023-03-03T08:53:30;13.30;82.70
3705;DHT22;1868;48.918;9.438;2023-03-03T08:56:02;12.70;81.50
3705;DHT22;1868;48.918;9.438;2023-03-03T08:58:30;12.00;81.20
3705;DHT22;1868;48.918;9.438;2023-03-03T09:01:02;11.60;84.70
3705;DHT22;1868;48.918;9.438;2023-03-03T09:03:30;11.30;85.30
3705;DHT22;1868;48.918;9.438;2023-03-03T09:05:59;11.20;86.80
3705;DHT22;1868;48.918;9.438;2023-03-03T09:08:27;11.00;86.40
3705;DHT22;1868;48.918;9.438;2023-03-03T09:10:57;10.60;86.80
3705;DHT22;1868;48.918;9.438;2023-03-03T09:13:28;10.50;88.40
3705;DHT22;1868;48.918;9.438;2023-03-03T09:15:57;10.30;89.20
3705;DHT22;1868;48.918;9.438;2023-03-03T09:18:30;10.20;88.60
3705;DHT22;1868;48.918;9.438;2023-03-03T09:21:16;10.10;89.00
3705;DHT22;1868;48.918;9.438;2023-03-03T09:23:53;10.10;89.70
3705;DHT22;1868;48.918;9.438;2023-03-03T09:26:29;10.20;90.10
3705;DHT22;1868;48.918;9.438;2023-03-03T09:29:23;10.20;90.10
3705;DHT22;1868;48.918;9.438;2023-03-03T09:31:55;10.30;89.00
3705;DHT22;1868;48.918;9.438;2023-03-03T09:34:27;10.20;89.00
3705;DHT22;1868;48.918;9.438;2023-03-03T09:37:17;10.30;89.20
3705;DHT22;1868;48.918;9.438;2023-03-03T09:39:50;10.60;89.00
3705;DHT22;1868;48.918;9.438;2023-03-03T09:42:45;11.20;88.20
3705;DHT22;1868;48.918;9.438;2023-03-03T09:45:29;11.90;85.60
3705;DHT22;1868;48.918;9.438;2023-03-03T09:51:40;13.10;81.50
3705;DHT22;1868;48.918;9.438;2023-03-03T09:54:27;14.10;78.60
3705;DHT22;1868;48.918;9.438;2023-03-03T09:57:06;14.20;73.90
3705;DHT22;1868;48.918;9.438;2023-03-03T10:02:50;15.20;71.80
3705;DHT22;1868;48.918;9.438;2023-03-03T10:05:40;16.60;67.90
3705;DHT22;1868;48.918;9.438;2023-03-03T10:11:20;19.00;59.30
3705;DHT22;1868;48.918;9.438;2023-03-03T10:13:59;19.10;52.80
3705;DHT22;1868;48.918;9.438;2023-03-03T10:16:47;19.20;50.80
3705;DHT22;1868;48.918;9.438;2023-03-03T10:19:32;19.40;48.40
3705;DHT22;1868;48.918;9.438;2023-03-03T10:22:17;20.30;51.10
3705;DHT22;1868;48.918;9.438;2023-03-03T10:25:06;20.60;44.00
3705;DHT22;1868;48.918;9.438;2023-03-03T10:27:50;19.50;44.90
3705;DHT22;1868;48.918;9.438;2023-03-03T10:30:35;18.80;48.40
3705;DHT22;1868;48.918;9.438;2023-03-03T10:33:36;18.20;52.30
3705;DHT22;1868;48.918;9.438;2023-03-03T10:36:26;17.80;53.40
3705;DHT22;1868;48.918;9.438;2023-03-03T10:39:18;17.30;52.30
3705;DHT22;1868;48.918;9.438;2023-03-03T10:42:06;16.80;55.20
3705;DHT22;1868;48.918;9.438;2023-03-03T10:44:59;15.90;55.20
3705;DHT22;1868;48.918;9.438;2023-03-03T10:48:02;15.70;56.70
3705;DHT22;1868;48.918;9.438;2023-03-03T10:50:45;15.50;58.40
3705;DHT22;1868;48.918;9.438;2023-03-03T10:53:24;15.50;58.40
3705;DHT22;1868;48.918;9.438;2023-03-03T10:56:07;15.30;59.80
3705;DHT22;1868;48.918;9.438;2023-03-03T10:58:48;15.20;60.70
3705;DHT22;1868;48.918;9.438;2023-03-03T11:01:25;14.90;59.90
3705;DHT22;1868;48.918;9.438;2023-03-03T11:07:15;14.10;62.30
3705;DHT22;1868;48.918;9.438;2023-03-03T11:09:55;13.80;62.30
3705;DHT22;1868;48.918;9.438;2023-03-03T11:12:40;13.60;64.40
3705;DHT22;1868;48.918;9.438;2023-03-03T11:15:29;13.70;66.10
3705;DHT22;1868;48.918;9.438;2023-03-03T11:18:18;13.50;67.00
3705;DHT22;1868;48.918;9.438;2023-03-03T11:20:56;13.20;70.20
3705;DHT22;1868;48.918;9.438;2023-03-03T11:27:10;13.30;69.40
3705;DHT22;1868;48.918;9.438;2023-03-03T11:30:02;13.30;68.10
3705;DHT22;1868;48.918;9.438;2023-03-03T11:32:49;13.20;67.40
3705;DHT22;1868;48.918;9.438;2023-03-03T11:35:25;13.20;68.10
3705;DHT22;1868;48.918;9.438;2023-03-03T11:38:05;13.20;68.10
3705;DHT22;1868;48.918;9.438;2023-03-03T11:40:47;13.10;68.10
3705;DHT22;1868;48.918;9.438;2023-03-03T11:43:20;12.90;69.20
3705;DHT22;1868;48.918;9.438;2023-03-03T11:46:05;12.60;69.10
3705;DHT22;1868;48.918;9.438;2023-03-03T11:48:42;12.70;70.70
3705;DHT22;1868;48.918;9.438;2023-03-03T11:51:22;12.80;72.00
3705;DHT22;1868;48.918;9.438;2023-03-03T11:54:03;13.00;70.40
3705;DHT22;1868;48.918;9.438;2023-03-03T11:56:38;13.20;68.10
3705;DHT22;1868;48.918;9.438;2023-03-03T12:02:57;13.40;70.40
3705;DHT22;1868;48.918;9.438;2023-03-03T12:05:46;13.40;69.20
3705;DHT22;1868;48.918;9.438;2023-03-03T12:08:31;13.50;69.60
3705;DHT22;1868;48.918;9.438;2023-03-03T12:11:15;13.50;69.80
3705;DHT22;1868;48.918;9.438;2023-03-03T12:13:55;13.40;70.50
3705;DHT22;1868;48.918;9.438;2023-03-03T12:16:36;13.50;70.70
3705;DHT22;1868;48.918;9.438;2023-03-03T12:19:17;13.60;70.40
3705;DHT22;1868;48.918;9.438;2023-03-03T12:22:09;13.60;69.10
3705;DHT22;1868;48.918;9.438;2023-03-03T12:25:08;13.50;67.70
3705;DHT22;1868;48.918;9.438;2023-03-03T12:27:51;13.60;67.20
3705;DHT22;1868;48.918;9.438;2023-03-03T12:30:53;13.70;69.40
3705;DHT22;1868;48.918;9.438;2023-03-03T12:33:38;13.70;67.00
3705;DHT22;1868;48.918;9.438;2023-03-03T12:36:29;13.80;68.30
3705;DHT22;1868;48.918;9.438;2023-03-03T12:39:11;14.20;67.40
3705;DHT22;1868;48.918;9.438;2023-03-03T12:42:04;14.50;65.90
3705;DHT22;1868;48.918;9.438;2023-03-03T12:44:42;15.00;62.50
3705;DHT22;1868;48.918;9.438;2023-03-03T12:47:15;14.70;62.20
3705;DHT22;1868;48.918;9.438;2023-03-03T12:50:02;14.80;63.30
3705;DHT22;1868;48.918;9.438;2023-03-03T12:52:47;14.90;63.70
3705;DHT22;1868;48.918;9.438;2023-03-03T12:55:24;15.70;63.10
3705;DHT22;1868;48.918;9.438;2023-03-03T12:58:06;16.90;59.90
3705;DHT22;1868;48.918;9.438;2023-03-03T13:00:46;17.10;58.10
3705;DHT22;1868;48.918;9.438;2023-03-03T13:03:34;17.40;55.80
3705;DHT22;1868;48.918;9.438;2023-03-03T13:06:27;17.60;56.00
3705;DHT22;1868;48.918;9.438;2023-03-03T13:09:07;17.50;55.20
3705;DHT22;1868;48.918;9.438;2023-03-03T13:12:02;17.10;55.10
3705;DHT22;1868;48.918;9.438;2023-03-03T13:14:48;17.10;53.90
3705;DHT22;1868;48.918;9.438;2023-03-03T13:17:22;18.20;53.20
3705;DHT22;1868;48.918;9.438;2023-03-03T13:19:58;18.60;51.70
3705;DHT22;1868;48.918;9.438;2023-03-03T13:22:34;19.00;50.70
3705;DHT22;1868;48.918;9.438;2023-03-03T13:25:23;19.90;49.30
3705;DHT22;1868;48.918;9.438;2023-03-03T13:28:20;20.60;47.30
3705;DHT22;1868;48.918;9.438;2023-03-03T13:30:56;21.50;46.20
3705;DHT22;1868;48.918;9.438;2023-03-03T13:33:29;21.50;42.00
3705;DHT22;1868;48.918;9.438;2023-03-03T13:36:08;21.40;42.00
3705;DHT22;1868;48.918;9.438;2023-03-03T13:38:40;20.80;41.70
3705;DHT22;1868;48.918;9.438;2023-03-03T13:41:18;20.90;44.10
3705;DHT22;1868;48.918;9.438;2023-03-03T13:43:54;21.40;43.50
3705;DHT22;1868;48.918;9.438;2023-03-03T13:46:33;21.50;43.60
3705;DHT22;1868;48.918;9.438;2023-03-03T13:49:30;21.90;43.20
3705;DHT22;1868;48.918;9.438;2023-03-03T13:52:20;21.90;42.10
3705;DHT22;1868;48.918;9.438;2023-03-03T13:54:55;21.90;40.90
3705;DHT22;1868;48.918;9.438;2023-03-03T13:57:44;22.30;41.20
3705;DHT22;1868;48.918;9.438;2023-03-03T14:00:25;22.70;39.40
3705;DHT22;1868;48.918;9.438;2023-03-03T14:06:29;22.30;40.00
3705;DHT22;1868;48.918;9.438;2023-03-03T14:09:19;22.60;41.10
3705;DHT22;1868;48.918;9.438;2023-03-03T14:12:01;22.90;38.50
3705;DHT22;1868;48.918;9.438;2023-03-03T14:14:43;22.80;38.80
3705;DHT22;1868;48.918;9.438;2023-03-03T14:17:20;22.80;38.60
3705;DHT22;1868;48.918;9.438;2023-03-03T14:20:01;23.00;39.10
3705;DHT22;1868;48.918;9.438;2023-03-03T14:22:44;23.00;38.50
3705;DHT22;1868;48.918;9.438;2023-03-03T14:25:17;22.30;38.80
3705;DHT22;1868;48.918;9.438;2023-03-03T14:28:04;22.50;38.20
3705;DHT22;1868;48.918;9.438;2023-03-03T14:30:38;22.10;38.20
3705;DHT22;1868;48.918;9.438;2023-03-03T14:33:27;21.80;39.50
3705;DHT22;1868;48.918;9.438;2023-03-03T14:36:10;21.70;38.80
3705;DHT22;1868;48.918;9.438;2023-03-03T14:38:47;21.20;40.80
3705;DHT22;1868;48.918;9.438;2023-03-03T14:41:38;21.40;40.80
3705;DHT22;1868;48.918;9.438;2023-03-03T14:44:27;20.90;40.80
3705;DHT22;1868;48.918;9.438;2023-03-03T14:47:16;20.70;41.70
3705;DHT22;1868;48.918;9.438;2023-03-03T14:49:49;21.20;41.80
3705;DHT22;1868;48.918;9.438;2023-03-03T14:52:23;21.40;40.90
3705;DHT22;1868;48.918;9.438;2023-03-03T14:54:53;21.50;41.20
3705;DHT22;1868;48.918;9.438;2023-03-03T14:57:38;21.60;39.50
3705;DHT22;1868;48.918;9.438;2023-03-03T15:00:31;21.10;39.10
3705;DHT22;1868;48.918;9.438;2023-03-03T15:03:20;20.50;41.20
3705;DHT22;1868;48.918;9.438;2023-03-03T15:05:50;20.40;42.90
3705;DHT22;1868;48.918;9.438;2023-03-03T15:08:29;20.60;43.00
3705;DHT22;1868;48.918;9.438;2023-03-03T15:11:18;20.60;43.60
3705;DHT22;1868;48.918;9.438;2023-03-03T15:13:50;20.40;41.40
3705;DHT22;1868;48.918;9.438;2023-03-03T15:16:21;20.30;42.60
3705;DHT22;1868;48.918;9.438;2023-03-03T15:19:18;19.60;43.20
3705;DHT22;1868;48.918;9.438;2023-03-03T15:22:03;18.90;44.10
3705;DHT22;1868;48.918;9.438;2023-03-03T15:24:40;18.90;45.60
3705;DHT22;1868;48.918;9.438;2023-03-03T15:27:20;19.10;45.90
3705;DHT22;1868;48.918;9.438;2023-03-03T15:30:06;18.50;45.80
3705;DHT22;1868;48.918;9.438;2023-03-03T15:32:45;18.30;47.30
3705;DHT22;1868;48.918;9.438;2023-03-03T15:35:26;18.00;47.80
3705;DHT22;1868;48.918;9.438;2023-03-03T15:38:13;17.90;48.80
3705;DHT22;1868;48.918;9.438;2023-03-03T15:40:48;17.40;48.10
3705;DHT22;1868;48.918;9.438;2023-03-03T15:43:23;17.10;50.30
3705;DHT22;1868;48.918;9.438;2023-03-03T15:46:05;17.00;49.90
3705;DHT22;1868;48.918;9.438;2023-03-03T15:48:51;17.10;50.30
3705;DHT22;1868;48.918;9.438;2023-03-03T15:51:36;17.10;50.80
3705;DHT22;1868;48.918;9.438;2023-03-03T15:54:35;17.00;51.00
3705;DHT22;1868;48.918;9.438;2023-03-03T15:57:12;16.70;51.00
3705;DHT22;1868;48.918;9.438;2023-03-03T16:00:08;16.40;52.50
3705;DHT22;1868;48.918;9.438;2023-03-03T16:02:56;16.50;53.40
3705;DHT22;1868;48.918;9.438;2023-03-03T16:05:30;16.30;53.40
3705;DHT22;1868;48.918;9.438;2023-03-03T16:08:04;16.20;53.70
3705;DHT22;1868;48.918;9.438;2023-03-03T16:10:49;16.00;52.80
3705;DHT22;1868;48.918;9.438;2023-03-03T16:13:36;16.00;53.70
3705;DHT22;1868;48.918;9.438;2023-03-03T16:16:19;15.60;54.20
3705;DHT22;1868;48.918;9.438;2023-03-03T16:19:05;15.30;55.50
3705;DHT22;1868;48.918;9.438;2023-03-03T16:22:17;15.20;55.70
3705;DHT22;1868;48.918;9.438;2023-03-03T16:25:00;15.10;56.30
3705;DHT22;1868;48.918;9.438;2023-03-03T16:27:36;14.70;58.10
3705;DHT22;1868;48.918;9.438;2023-03-03T16:30:25;14.30;58.30
3705;DHT22;1868;48.918;9.438;2023-03-03T16:33:07;14.10;59.20
3705;DHT22;1868;48.918;9.438;2023-03-03T16:35:42;13.80;61.60
3705;DHT22;1868;48.918;9.438;2023-03-03T16:38:17;13.50;61.40
3705;DHT22;1868;48.918;9.438;2023-03-03T16:40:52;13.30;62.30
3705;DHT22;1868;48.918;9.438;2023-03-03T16:43:26;12.90;64.00
3705;DHT22;1868;48.918;9.438;2023-03-03T16:46:04;12.50;67.40
3705;DHT22;1868;48.918;9.438;2023-03-03T16:48:46;12.10;69.20
3705;DHT22;1868;48.918;9.438;2023-03-03T16:51:30;11.80;70.40
3705;DHT22;1868;48.918;9.438;2023-03-03T16:54:08;11.40;72.40
3705;DHT22;1868;48.918;9.438;2023-03-03T16:56:42;11.10;73.70
3705;DHT22;1868;48.918;9.438;2023-03-03T16:59:30;10.90;75.60
3705;DHT22;1868;48.918;9.438;2023-03-03T17:02:19;10.70;74.80
3705;DHT22;1868;48.918;9.438;2023-03-03T17:05:05;10.50;78.40
3705;DHT22;1868;48.918;9.438;2023-03-03T17:07:43;10.20;81.20
3705;DHT22;1868;48.918;9.438;2023-03-03T17:10:24;9.90;81.90
3705;DHT22;1868;48.918;9.438;2023-03-03T17:13:07;9.70;85.30
3705;DHT22;1868;48.918;9.438;2023-03-03T17:16:04;9.60;86.00
3705;DHT22;1868;48.918;9.438;2023-03-03T17:18:50;9.40;86.80
3705;DHT22;1868;48.918;9.438;2023-03-03T17:21:31;9.20;88.60
3705;DHT22;1868;48.918;9.438;2023-03-03T17:24:12;9.00;89.20
3705;DHT22;1868;48.918;9.438;2023-03-03T17:26:52;8.90;90.10
3705;DHT22;1868;48.918;9.438;2023-03-03T17:29:55;8.80;90.70
3705;DHT22;1868;48.918;9.438;2023-03-03T17:32:43;8.70;90.30
3705;DHT22;1868;48.918;9.438;2023-03-03T17:35:32;8.50;91.80
3705;DHT22;1868;48.918;9.438;2023-03-03T17:38:14;8.40;91.90